Time;durP1;ratioP1;P1;durP2;ratioP2;P2;SDS_P1;SDS_P2;PMS_P1;PMS_P2;Temp;Humidity;BMP_temperature;BMP_pressure;BME280_temperature;BME280_humidity;BME280_pressure;Samples;Min_cycle;Max_cycle;Signal;HPM_P1;HPM_P2
2021/07/04 00:00:50;;;;;;;5.60;3.97;;;24.00;93.60;;;;;;4212289;28;20064;-73
2021/07/04 00:02:55;;;;;;;6.68;4.30;;;23.90;94.20;;;;;;4214019;28;20058;-73
2021/07/04 00:04:58;;;;;;;8.13;4.07;;;23.90;93.60;;;;;;4210203;28;20128;-73
2021/07/04 00:07:02;;;;;;;6.97;4.30;;;23.90;93.40;;;;;;4219367;28;20064;-74
2021/07/04 00:09:05;;;;;;;6.33;4.17;;;23.90;93.60;;;;;;4219073;28;20048;-74
2021/07/04 00:11:10;;;;;;;5.55;4.47;;;23.90;93.80;;;;;;4217248;28;20131;-73
2021/07/04 00:13:13;;;;;;;5.95;4.90;;;23.80;93.90;;;;;;4214581;28;20064;-73
2021/07/04 00:15:19;;;;;;;6.75;4.80;;;23.80;94.30;;;;;;4214933;28;20721;-74
2021/07/04 00:17:22;;;;;;;7.82;5.10;;;23.80;94.10;;;;;;4214541;28;20075;-73
2021/07/04 00:19:25;;;;;;;8.00;4.88;;;23.80;93.80;;;;;;4214359;28;20064;-73
2021/07/04 00:21:28;;;;;;;8.43;5.70;;;23.80;93.70;;;;;;4214366;28;20056;-74
2021/07/04 00:23:31;;;;;;;8.43;4.78;;;23.80;93.60;;;;;;4214613;28;20055;-73
2021/07/04 00:25:36;;;;;;;7.43;5.22;;;23.80;93.50;;;;;;4214097;28;20458;-73
2021/07/04 00:27:40;;;;;;;7.70;5.32;;;23.80;93.50;;;;;;4214385;28;20060;-73
2021/07/04 00:29:43;;;;;;;;;;;23.70;94.10;;;;;;4214697;28;20055;-74
2021/07/04 00:31:46;;;;;;;6.53;5.32;;;23.70;93.80;;;;;;4214154;28;19920;-75
2021/07/04 00:33:49;;;;;;;7.65;5.22;;;23.70;94.80;;;;;;4214148;28;20066;-74
2021/07/04 00:35:53;;;;;;;6.53;4.55;;;23.70;94.10;;;;;;4213842;28;20052;-74
2021/07/04 00:37:56;;;;;;;7.53;5.07;;;23.60;94.10;;;;;;4214941;28;20054;-74
2021/07/04 00:40:00;;;;;;;5.93;4.57;;;23.60;94.40;;;;;;4214505;28;20048;-74
2021/07/04 00:42:03;;;;;;;8.70;5.18;;;23.50;94.10;;;;;;4214021;28;20051;-75
2021/07/04 00:44:08;;;;;;;5.60;4.47;;;23.60;94.10;;;;;;4214099;28;20066;-75
2021/07/04 00:46:11;;;;;;;7.63;5.13;;;23.60;93.90;;;;;;4214036;28;20066;-73
2021/07/04 00:48:14;;;;;;;6.68;4.60;;;23.60;94.20;;;;;;4214329;28;20412;-74
2021/07/04 00:50:19;;;;;;;5.60;4.07;;;23.50;94.00;;;;;;4214220;28;20067;-73
2021/07/04 00:52:23;;;;;;;7.30;5.38;;;23.50;94.10;;;;;;4213874;28;20566;-74
2021/07/04 00:54:26;;;;;;;7.05;4.68;;;23.50;94.50;;;;;;4222763;27;20057;-72
2021/07/04 00:56:29;;;;;;;7.43;5.68;;;23.50;94.10;;;;;;4247668;27;20051;-74
2021/07/04 00:58:32;;;;;;;6.03;4.60;;;23.50;94.40;;;;;;4247650;27;20047;-74
2021/07/04 01:00:38;;;;;;;10.82;7.32;;;23.40;94.30;;;;;;4247922;27;20065;-75
2021/07/04 01:02:42;;;;;;;15.60;10.38;;;23.50;94.40;;;;;;4247856;27;20065;-73
2021/07/04 01:04:46;;;;;;;17.52;12.52;;;23.40;94.10;;;;;;4231498;28;20056;-72
2021/07/04 01:06:49;;;;;;;12.32;8.90;;;23.40;94.30;;;;;;4239895;27;20051;-73
2021/07/04 01:08:52;;;;;;;12.90;8.27;;;23.40;94.40;;;;;;4250313;27;20063;-73
2021/07/04 01:10:55;;;;;;;15.00;10.95;;;23.40;94.30;;;;;;4232402;28;20051;-74
2021/07/04 01:12:59;;;;;;;18.75;13.13;;;23.40;95.20;;;;;;4247132;27;20051;-74
2021/07/04 01:15:04;;;;;;;20.58;15.35;;;23.40;94.70;;;;;;4247342;27;20054;-75
2021/07/04 01:17:08;;;;;;;14.97;10.80;;;23.30;94.70;;;;;;4246876;27;20070;-73
2021/07/04 01:19:14;;;;;;;18.70;13.20;;;23.30;94.60;;;;;;4247667;27;20479;-73
2021/07/04 01:21:18;;;;;;;19.80;13.23;;;23.30;94.40;;;;;;4247675;27;20055;-74
2021/07/04 01:23:23;;;;;;;18.90;12.80;;;23.30;94.40;;;;;;4247527;27;20055;-73
2021/07/04 01:25:27;;;;;;;21.00;13.93;;;23.30;94.70;;;;;;4230198;28;20523;-73
2021/07/04 01:27:30;;;;;;;23.48;14.60;;;23.30;94.60;;;;;;4238180;27;20052;-73
2021/07/04 01:29:33;;;;;;;19.60;14.20;;;23.30;94.80;;;;;;4247267;27;20119;-73
2021/07/04 01:31:36;;;;;;;19.45;13.23;;;23.20;94.80;;;;;;4247220;27;20062;-74
2021/07/04 01:33:39;;;;;;;22.92;14.32;;;23.10;95.30;;;;;;4246789;27;20055;-74
2021/07/04 01:35:42;;;;;;;17.35;12.30;;;23.20;95.40;;;;;;4246948;27;20055;-74
2021/07/04 01:37:46;;;;;;;20.13;13.95;;;23.10;95.00;;;;;;4246996;27;20472;-76
2021/07/04 01:39:50;;;;;;;20.17;12.85;;;23.20;94.90;;;;;;4252252;27;20134;-76
2021/07/04 01:41:53;;;;;;;17.30;12.98;;;23.20;94.60;;;;;;4251908;27;20685;-74
2021/07/04 01:43:56;;;;;;;18.67;12.27;;;23.10;95.30;;;;;;4251006;27;20047;-74
2021/07/04 01:46:02;;;;;;;18.10;12.32;;;23.10;95.30;;;;;;4231742;28;20062;-74
2021/07/04 01:48:06;;;;;;;13.90;10.93;;;23.10;95.10;;;;;;4249338;27;20126;-73
2021/07/04 01:50:12;;;;;;;15.18;11.55;;;23.10;94.90;;;;;;4249674;27;20058;-73
2021/07/04 01:52:16;;;;;;;14.82;10.90;;;23.10;94.90;;;;;;4248553;27;20061;-73
2021/07/04 01:54:19;;;;;;;13.88;10.48;;;23.10;95.00;;;;;;4246321;27;20514;-75
2021/07/04 01:56:23;;;;;;;15.50;10.48;;;23.10;95.60;;;;;;4247266;27;20059;-75
2021/07/04 01:58:26;;;;;;;13.95;9.95;;;23.10;95.40;;;;;;4247742;27;20513;-73
2021/07/04 02:00:31;;;;;;;14.23;10.50;;;23.10;95.20;;;;;;4250739;27;20054;-74
2021/07/04 02:02:34;;;;;;;14.35;9.23;;;23.00;95.20;;;;;;4252875;27;20051;-73
2021/07/04 02:04:39;;;;;;;12.82;9.20;;;23.00;95.10;;;;;;4245753;27;20043;-73
2021/07/04 02:06:42;;;;;;;12.02;9.52;;;23.10;95.10;;;;;;4250669;27;20126;-73
2021/07/04 02:08:45;;;;;;;12.95;8.48;;;23.00;95.30;;;;;;4249927;27;20055;-74
2021/07/04 02:10:48;;;;;;;14.43;9.43;;;23.00;95.20;;;;;;4249441;27;20059;-74
2021/07/04 02:12:53;;;;;;;12.88;9.77;;;23.00;95.30;;;;;;4246959;27;20384;-74
2021/07/04 02:14:56;;;;;;;12.77;8.93;;;23.00;95.30;;;;;;4246666;27;20055;-74
2021/07/04 02:16:59;;;;;;;13.25;10.02;;;23.00;94.90;;;;;;4246277;27;20051;-74
2021/07/04 02:19:03;;;;;;;15.55;10.40;;;23.00;94.90;;;;;;4227834;28;20047;-73
2021/07/04 02:21:06;;;;;;;14.38;9.77;;;23.10;95.20;;;;;;4246225;27;20051;-74
2021/07/04 02:23:11;;;;;;;12.75;9.75;;;23.10;94.70;;;;;;4246520;27;20411;-74
2021/07/04 02:25:14;;;;;;;13.93;9.73;;;23.10;95.10;;;;;;4246079;27;20066;-74
2021/07/04 02:27:17;;;;;;;17.10;9.55;;;23.10;95.00;;;;;;4246096;27;20054;-74
2021/07/04 02:29:21;;;;;;;10.65;7.22;;;23.10;95.10;;;;;;4245817;27;20058;-74
2021/07/04 02:31:24;;;;;;;12.07;6.78;;;23.10;95.30;;;;;;4245905;27;20059;-74
2021/07/04 02:33:28;;;;;;;10.73;7.75;;;23.10;95.00;;;;;;4245852;27;20058;-74
2021/07/04 02:35:32;;;;;;;10.88;6.88;;;23.20;95.30;;;;;;4245578;27;20051;-74
2021/07/04 02:37:35;;;;;;;9.70;5.45;;;23.10;95.50;;;;;;4245700;27;20578;-74
2021/07/04 02:39:38;;;;;;;8.73;5.53;;;23.00;96.40;;;;;;4245962;27;20059;-74
2021/07/04 02:41:42;;;;;;;8.40;5.13;;;23.00;96.90;;;;;;4245481;27;20050;-74
2021/07/04 02:43:45;;;;;;;6.57;5.18;;;22.80;97.30;;;;;;4246076;27;20051;-74
2021/07/04 02:45:50;;;;;;;7.05;5.22;;;22.80;96.70;;;;;;4245525;27;20394;-74
2021/07/04 02:47:53;;;;;;;9.15;5.05;;;22.90;97.40;;;;;;4246187;27;20062;-74
2021/07/04 02:49:56;;;;;;;9.13;5.18;;;23.00;96.60;;;;;;4245833;27;20051;-74
2021/07/04 02:51:59;;;;;;;8.35;5.07;;;22.80;97.60;;;;;;4236676;28;20047;-74
2021/07/04 02:54:03;;;;;;;7.18;5.20;;;22.90;97.10;;;;;;4228826;28;20055;-74
2021/07/04 02:56:24;;;;;;;8.82;5.05;;;22.90;97.00;;;;;;4245145;27;20055;-74
2021/07/04 02:58:27;;;;;;;6.93;4.90;;;22.90;96.30;;;;;;4227701;28;20048;-73
2021/07/04 03:00:30;;;;;;;7.35;5.20;;;23.00;96.30;;;;;;4245476;27;20061;-74
2021/07/04 03:02:35;;;;;;;8.63;5.05;;;23.00;96.50;;;;;;4245847;27;20051;-74
2021/07/04 03:04:38;;;;;;;7.88;4.93;;;23.00;96.60;;;;;;4246368;28;20506;-74
2021/07/04 03:06:41;;;;;;;8.07;5.20;;;23.00;96.60;;;;;;4249548;27;20514;-73
2021/07/04 03:08:44;;;;;;;8.40;4.47;;;22.90;96.90;;;;;;4247997;27;20051;-74
2021/07/04 03:10:47;;;;;;;10.73;5.22;;;22.90;97.10;;;;;;4245942;27;20047;-74
2021/07/04 03:12:50;;;;;;;9.32;5.38;;;22.90;97.30;;;;;;4246254;27;20043;-73
2021/07/04 03:14:54;;;;;;;6.85;5.22;;;22.80;97.30;;;;;;4246313;27;20062;-74
2021/07/04 03:16:57;;;;;;;8.82;5.95;;;22.80;98.00;;;;;;4247275;27;20419;-74
2021/07/04 03:19:01;;;;;;;7.82;5.53;;;22.70;97.90;;;;;;4246884;27;20509;-74
2021/07/04 03:21:04;;;;;;;7.97;5.32;;;22.80;97.60;;;;;;4246069;27;20051;-74
2021/07/04 03:23:07;;;;;;;10.10;6.55;;;22.80;97.30;;;;;;4245582;27;20415;-74
2021/07/04 03:25:12;;;;;;;9.07;5.47;;;22.80;97.50;;;;;;4246078;27;20061;-74
2021/07/04 03:27:15;;;;;;;7.60;5.13;;;22.90;96.80;;;;;;4226742;28;20070;-74
2021/07/04 03:29:18;;;;;;;9.95;6.28;;;22.90;96.60;;;;;;4245214;27;20051;-75
2021/07/04 03:31:21;;;;;;;10.35;5.88;;;23.00;96.90;;;;;;4245094;27;20047;-74
2021/07/04 03:33:24;;;;;;;7.47;5.53;;;22.90;97.10;;;;;;4234278;27;20062;-74
2021/07/04 03:35:29;;;;;;;8.27;4.55;;;23.00;97.10;;;;;;4245429;27;20059;-74
2021/07/04 03:37:32;;;;;;;6.97;4.32;;;23.00;96.90;;;;;;4227021;28;20102;-74
2021/07/04 03:39:35;;;;;;;4.72;4.22;;;23.00;96.80;;;;;;4245301;27;20078;-74
2021/07/04 03:41:38;;;;;;;10.90;4.10;;;23.00;97.00;;;;;;4248013;27;20427;-74
2021/07/04 03:43:41;;;;;;;4.82;3.95;;;22.90;97.40;;;;;;4248676;27;20054;-73
2021/07/04 03:45:45;;;;;;;10.70;3.78;;;22.80;97.80;;;;;;4248272;27;20065;-74
2021/07/04 03:47:48;;;;;;;6.90;3.83;;;22.80;97.80;;;;;;4248293;27;20051;-73
2021/07/04 03:49:51;;;;;;;7.03;3.80;;;22.80;97.30;;;;;;4248471;27;20058;-74
2021/07/04 03:51:56;;;;;;;6.68;3.40;;;22.80;97.50;;;;;;4239527;27;20488;-73
2021/07/04 03:53:59;;;;;;;5.97;3.63;;;22.80;97.20;;;;;;4247696;27;20051;-73
2021/07/04 03:56:02;;;;;;;4.60;3.50;;;22.90;96.90;;;;;;4248281;27;20051;-73
2021/07/04 03:58:06;;;;;;;7.18;3.63;;;23.00;97.30;;;;;;4247665;27;20055;-73
2021/07/04 04:00:10;;;;;;;6.05;3.33;;;22.90;97.80;;;;;;4247640;27;20055;-74
2021/07/04 04:02:13;;;;;;;7.63;3.93;;;22.80;97.70;;;;;;4247431;27;20567;-73
2021/07/04 04:04:16;;;;;;;7.63;3.88;;;22.80;97.90;;;;;;4228770;28;20048;-73
2021/07/04 04:06:20;;;;;;;6.70;4.43;;;22.60;98.20;;;;;;4232000;28;20056;-73
2021/07/04 04:08:25;;;;;;;7.85;3.83;;;22.50;98.30;;;;;;4244616;27;20070;-73
2021/07/04 04:10:28;;;;;;;6.20;3.53;;;22.40;99.10;;;;;;4248596;27;20062;-73
2021/07/04 04:12:31;;;;;;;7.10;3.13;;;22.40;99.60;;;;;;4247345;27;20058;-73
2021/07/04 04:14:34;;;;;;;9.77;3.70;;;22.30;99.80;;;;;;4247539;27;20047;-73
2021/07/04 04:16:37;;;;;;;8.25;3.67;;;22.30;99.90;;;;;;4248125;27;20062;-73
2021/07/04 04:18:40;;;;;;;5.78;2.88;;;22.30;99.90;;;;;;4247663;27;20043;-73
2021/07/04 04:20:43;;;;;;;8.60;1.90;;;22.30;99.90;;;;;;4247311;27;20051;-73
2021/07/04 04:22:46;;;;;;;11.25;2.63;;;22.10;97.90;;;;;;4247386;27;20042;-73
2021/07/04 04:24:51;;;;;;;10.93;3.15;;;22.00;98.60;;;;;;4229638;28;20074;-73
2021/07/04 04:26:54;;;;;;;9.82;2.60;;;21.90;98.60;;;;;;4247954;27;20047;-72
2021/07/04 04:28:57;;;;;;;3.55;1.88;;;22.00;98.70;;;;;;4247517;27;20058;-72
2021/07/04 04:31:00;;;;;;;3.40;1.30;;;22.00;98.40;;;;;;4247590;27;20407;-72
2021/07/04 04:33:03;;;;;;;5.55;1.50;;;22.00;98.00;;;;;;4247315;27;20495;-73
2021/07/04 04:35:08;;;;;;;4.13;1.45;;;22.00;97.80;;;;;;4247401;27;20084;-72
2021/07/04 04:37:11;;;;;;;2.95;1.10;;;22.00;98.00;;;;;;4246559;27;20056;-72
2021/07/04 04:39:14;;;;;;;2.88;1.00;;;21.70;98.00;;;;;;4247413;27;20057;-73
2021/07/04 04:41:19;;;;;;;4.05;1.25;;;21.30;98.50;;;;;;4229669;28;20467;-72
2021/07/04 04:43:22;;;;;;;;;;;21.20;99.00;;;;;;4247906;27;20086;-71
2021/07/04 04:45:25;;;;;;;1.88;1.00;;;21.10;99.90;;;;;;4247742;27;19942;-72
2021/07/04 04:47:29;;;;;;;4.50;1.67;;;21.00;99.90;;;;;;4247943;27;20053;-72
2021/07/04 04:49:32;;;;;;;5.72;1.88;;;21.10;99.90;;;;;;4247204;27;20404;-71
2021/07/04 04:51:35;;;;;;;6.95;1.95;;;21.10;99.90;;;;;;4236346;27;20139;-72
2021/07/04 04:53:38;;;;;;;5.63;2.30;;;21.20;99.90;;;;;;4231772;27;20048;-73
2021/07/04 04:55:41;;;;;;;7.88;2.25;;;21.20;99.90;;;;;;4243491;27;20050;-73
2021/07/04 04:57:45;;;;;;;5.68;2.42;;;21.30;99.90;;;;;;4247407;27;20054;-73
2021/07/04 04:59:49;;;;;;;4.63;1.90;;;21.40;99.80;;;;;;4247047;27;20055;-73
2021/07/04 05:01:52;;;;;;;5.80;2.28;;;21.50;99.50;;;;;;4247185;27;20055;-73
2021/07/04 05:03:55;;;;;;;6.78;2.10;;;21.50;99.50;;;;;;4248407;27;20059;-72
2021/07/04 05:05:58;;;;;;;4.95;2.50;;;21.60;99.40;;;;;;4249298;27;20051;-72
2021/07/04 05:08:01;;;;;;;5.70;2.15;;;21.70;99.20;;;;;;4249202;27;20057;-72
2021/07/04 05:10:05;;;;;;;3.42;2.00;;;21.70;99.50;;;;;;4247134;27;20058;-73
2021/07/04 05:12:08;;;;;;;4.40;1.90;;;21.70;99.40;;;;;;4246825;27;20051;-72
2021/07/04 05:14:12;;;;;;;4.03;1.80;;;21.70;99.50;;;;;;4247059;27;20061;-72
2021/07/04 05:16:15;;;;;;;5.05;2.08;;;21.70;99.40;;;;;;4247042;27;20055;-72
2021/07/04 05:18:18;;;;;;;7.95;2.83;;;21.70;99.80;;;;;;4247223;27;20059;-72
2021/07/04 05:20:22;;;;;;;4.35;2.05;;;21.70;99.90;;;;;;4246765;27;20051;-73
2021/07/04 05:22:25;;;;;;;5.00;2.17;;;21.70;99.90;;;;;;4247209;27;20552;-72
2021/07/04 05:24:28;;;;;;;5.55;2.67;;;21.70;99.90;;;;;;4247013;27;20051;-73
2021/07/04 05:26:31;;;;;;;5.38;2.30;;;21.80;99.90;;;;;;4246392;27;20499;-72
2021/07/04 05:28:34;;;;;;;5.55;2.50;;;21.80;99.90;;;;;;4246802;27;20059;-73
2021/07/04 05:30:39;;;;;;;6.60;2.30;;;21.80;99.90;;;;;;4246689;27;20051;-72
2021/07/04 05:32:42;;;;;;;6.25;2.65;;;21.80;99.90;;;;;;4246475;27;20051;-72
2021/07/04 05:34:46;;;;;;;4.80;2.77;;;21.80;99.90;;;;;;4246846;27;20051;-72
2021/07/04 05:36:50;;;;;;;6.68;3.00;;;21.70;99.90;;;;;;4246464;27;20398;-74
2021/07/04 05:38:53;;;;;;;7.00;2.93;;;21.80;99.90;;;;;;4229506;28;20139;-73
2021/07/04 05:40:56;;;;;;;5.82;2.75;;;21.80;99.90;;;;;;4237447;27;20046;-73
2021/07/04 05:42:59;;;;;;;6.15;3.35;;;21.90;99.90;;;;;;4228012;27;20059;-72
2021/07/04 05:45:08;;;;;;;11.98;4.38;;;21.90;99.90;;;;;;4246113;27;20055;-72
2021/07/04 05:47:13;;;;;;;5.05;3.05;;;21.70;99.90;;;;;;4245569;27;20552;-73
2021/07/04 05:49:16;;;;;;;;;;;21.40;99.90;;;;;;4246968;27;20462;-73
2021/07/04 05:51:19;;;;;;;4.55;3.33;;;21.40;99.90;;;;;;4242114;27;20356;-72
2021/07/04 05:53:22;;;;;;;7.32;3.85;;;21.50;99.90;;;;;;4246218;27;20609;-73
2021/07/04 05:55:25;;;;;;;7.03;3.75;;;21.60;99.90;;;;;;4245874;27;20047;-72
2021/07/04 05:57:28;;;;;;;5.38;3.55;;;21.60;99.90;;;;;;4245782;27;20051;-72
2021/07/04 05:59:32;;;;;;;6.78;3.45;;;21.60;99.90;;;;;;4229046;28;20052;-72
2021/07/04 06:01:36;;;;;;;7.35;3.60;;;21.70;99.90;;;;;;4237118;27;20051;-72
2021/07/04 06:03:41;;;;;;;6.18;3.10;;;21.80;99.90;;;;;;4250501;27;20059;-74
2021/07/04 06:05:44;;;;;;;11.82;3.92;;;21.70;99.90;;;;;;4245533;27;20047;-73
2021/07/04 06:07:47;;;;;;;3.80;3.05;;;21.70;99.90;;;;;;4246685;27;20051;-72
2021/07/04 06:09:50;;;;;;;4.30;2.90;;;21.60;99.90;;;;;;4245933;27;20057;-72
2021/07/04 06:11:53;;;;;;;3.53;2.80;;;21.60;99.90;;;;;;4245681;27;20049;-73
2021/07/04 06:13:56;;;;;;;5.78;3.00;;;21.60;99.90;;;;;;4246343;27;20051;-73
2021/07/04 06:15:59;;;;;;;8.25;3.05;;;21.40;99.90;;;;;;4245821;27;20061;-73
2021/07/04 06:18:02;;;;;;;7.63;3.45;;;21.30;99.90;;;;;;4245596;27;20062;-73
2021/07/04 06:20:09;;;;;;;9.23;3.05;;;21.20;99.90;;;;;;4245926;27;20061;-72
2021/07/04 06:22:12;;;;;;;4.15;2.78;;;21.30;99.90;;;;;;4245692;27;20051;-73
2021/07/04 06:24:15;;;;;;;5.93;2.92;;;21.30;99.90;;;;;;4245734;27;20412;-73
2021/07/04 06:26:18;;;;;;;4.72;2.80;;;21.30;99.90;;;;;;4246012;27;20126;-72
2021/07/04 06:28:21;;;;;;;4.15;2.55;;;21.30;99.90;;;;;;4245043;27;20062;-73
2021/07/04 06:30:24;;;;;;;6.05;2.83;;;21.20;99.90;;;;;;4245865;27;20400;-72
2021/07/04 06:32:27;;;;;;;4.90;2.60;;;21.10;99.90;;;;;;4246701;27;20057;-73
2021/07/04 06:34:30;;;;;;;8.55;3.42;;;21.20;99.90;;;;;;4245635;27;20059;-73
2021/07/04 06:36:35;;;;;;;6.35;2.90;;;21.30;99.90;;;;;;4245910;27;20051;-73
2021/07/04 06:38:38;;;;;;;8.98;2.80;;;21.40;99.90;;;;;;4245759;27;20082;-72
2021/07/04 06:40:41;;;;;;;6.55;2.90;;;21.40;99.90;;;;;;4245649;27;20051;-74
2021/07/04 06:42:44;;;;;;;8.07;2.75;;;21.50;99.90;;;;;;4227415;28;20128;-74
2021/07/04 06:44:48;;;;;;;6.10;2.75;;;21.50;99.90;;;;;;4245491;27;20754;-74
2021/07/04 06:46:51;;;;;;;6.82;3.00;;;21.50;99.90;;;;;;4245701;27;20422;-73
2021/07/04 06:48:55;;;;;;;11.18;2.90;;;21.50;99.90;;;;;;4245060;27;20051;-73
2021/07/04 06:50:58;;;;;;;8.75;2.75;;;21.40;99.90;;;;;;4240663;27;20399;-73
2021/07/04 06:53:02;;;;;;;5.30;2.70;;;21.30;99.90;;;;;;4232766;27;20509;-73
2021/07/04 06:55:06;;;;;;;6.13;3.00;;;21.40;99.90;;;;;;4227158;28;20047;-74
2021/07/04 06:57:27;;;;;;;4.73;2.20;;;21.50;99.90;;;;;;4245689;27;20051;-73
2021/07/04 06:59:30;;;;;;;9.95;2.55;;;21.60;99.90;;;;;;4245284;27;20057;-74
2021/07/04 07:01:33;;;;;;;8.68;2.30;;;21.50;99.90;;;;;;4247983;27;20096;-74
2021/07/04 07:03:37;;;;;;;7.60;2.47;;;21.50;99.90;;;;;;4249818;27;20047;-73
2021/07/04 07:05:40;;;;;;;8.23;2.80;;;21.50;99.90;;;;;;4249571;27;20051;-73
2021/07/04 07:07:43;;;;;;;7.40;2.92;;;21.50;99.90;;;;;;4246700;27;20414;-72
2021/07/04 07:09:48;;;;;;;5.03;2.28;;;21.60;99.90;;;;;;4227178;28;20060;-74
2021/07/04 07:11:51;;;;;;;7.90;2.70;;;21.70;99.90;;;;;;4245640;27;20059;-72
2021/07/04 07:13:54;;;;;;;4.10;2.55;;;21.80;99.90;;;;;;4245124;27;20051;-73
2021/07/04 07:15:57;;;;;;;4.70;2.42;;;21.80;99.90;;;;;;4247288;27;20491;-72
2021/07/04 07:18:01;;;;;;;7.47;2.88;;;21.80;99.90;;;;;;4248961;27;20055;-72
2021/07/04 07:20:05;;;;;;;4.63;2.60;;;21.80;99.90;;;;;;4248814;27;20055;-72
2021/07/04 07:22:08;;;;;;;4.93;2.70;;;22.00;99.90;;;;;;4249052;27;20055;-73
2021/07/04 07:24:11;;;;;;;9.48;2.53;;;22.00;99.90;;;;;;4248561;27;20055;-73
2021/07/04 07:26:16;;;;;;;3.78;2.60;;;22.00;99.90;;;;;;4250513;27;20255;-72
2021/07/04 07:28:19;;;;;;;7.50;2.67;;;21.90;99.90;;;;;;4250766;27;20059;-72
2021/07/04 07:30:22;;;;;;;5.88;2.50;;;21.80;99.90;;;;;;4249930;27;20051;-72
2021/07/04 07:32:27;;;;;;;5.88;2.47;;;21.80;99.90;;;;;;4250146;27;20582;-73
2021/07/04 07:34:30;;;;;;;6.50;2.28;;;21.90;99.90;;;;;;4249558;27;20057;-73
2021/07/04 07:36:33;;;;;;;5.65;2.28;;;22.00;99.90;;;;;;4248592;27;20081;-75
2021/07/04 07:38:36;;;;;;;4.28;2.50;;;22.00;99.90;;;;;;4248709;27;20051;-73
2021/07/04 07:40:39;;;;;;;4.53;2.30;;;22.00;99.90;;;;;;4248791;27;20058;-73
2021/07/04 07:42:44;;;;;;;5.07;2.53;;;22.10;99.90;;;;;;4248484;27;20047;-73
2021/07/04 07:44:48;;;;;;;5.22;2.13;;;22.20;99.90;;;;;;4247965;27;20047;-73
2021/07/04 07:46:51;;;;;;;7.53;2.40;;;22.20;99.90;;;;;;4230013;28;20058;-74
2021/07/04 07:48:54;;;;;;;3.80;2.58;;;22.30;99.90;;;;;;4248402;27;20047;-73
2021/07/04 07:50:57;;;;;;;6.35;2.63;;;22.30;99.90;;;;;;4243077;27;20052;-72
2021/07/04 07:53:00;;;;;;;5.85;2.22;;;22.50;99.90;;;;;;4245634;27;20422;-73
2021/07/04 07:55:05;;;;;;;3.92;2.10;;;22.40;99.90;;;;;;4247930;27;20048;-73
2021/07/04 07:57:08;;;;;;;;;;;22.40;99.90;;;;;;4249096;27;20047;-73
2021/07/04 07:59:13;;;;;;;6.50;2.35;;;22.30;99.90;;;;;;4248929;27;19950;-73
2021/07/04 08:01:16;;;;;;;5.88;2.40;;;22.20;99.90;;;;;;4232165;28;20055;-73
2021/07/04 08:03:19;;;;;;;7.82;2.30;;;22.20;99.90;;;;;;4250265;27;20055;-73
2021/07/04 08:05:23;;;;;;;6.55;2.40;;;22.20;99.90;;;;;;4250050;27;20055;-73
2021/07/04 08:07:26;;;;;;;5.30;2.42;;;22.20;99.90;;;;;;4242432;27;20047;-73
2021/07/04 08:09:29;;;;;;;6.05;2.28;;;21.90;99.90;;;;;;4248029;27;20410;-72
2021/07/04 08:11:32;;;;;;;5.30;2.20;;;21.90;99.90;;;;;;4247793;27;20058;-73
2021/07/04 08:13:35;;;;;;;2.83;2.22;;;21.70;99.90;;;;;;4248292;27;20051;-72
2021/07/04 08:15:40;;;;;;;6.50;2.17;;;21.60;99.90;;;;;;4248149;27;20047;-73
2021/07/04 08:17:43;;;;;;;9.13;2.60;;;21.40;99.90;;;;;;4247817;27;20047;-73
2021/07/04 08:19:48;;;;;;;9.10;2.42;;;21.30;99.90;;;;;;4248002;27;20054;-73
2021/07/04 08:21:51;;;;;;;4.95;2.03;;;21.10;99.90;;;;;;4247803;27;20051;-73
2021/07/04 08:23:54;;;;;;;4.07;1.92;;;21.20;99.90;;;;;;4247874;27;20055;-73
2021/07/04 08:25:57;;;;;;;3.88;1.80;;;21.50;99.90;;;;;;4247467;27;20055;-72
2021/07/04 08:28:00;;;;;;;5.18;2.00;;;21.60;99.90;;;;;;4247694;27;20050;-73
2021/07/04 08:30:05;;;;;;;6.22;2.10;;;21.60;99.90;;;;;;4247656;27;20064;-72
2021/07/04 08:32:10;;;;;;;5.43;2.15;;;21.80;99.90;;;;;;4247258;27;20059;-73
2021/07/04 08:34:13;;;;;;;4.15;1.90;;;21.80;99.90;;;;;;4229163;28;20411;-73
2021/07/04 08:36:16;;;;;;;5.13;2.03;;;22.00;99.90;;;;;;4247052;27;20047;-72
2021/07/04 08:38:19;;;;;;;7.15;2.58;;;22.20;99.90;;;;;;4247252;27;20062;-71
2021/07/04 08:40:22;;;;;;;6.72;2.33;;;22.30;99.90;;;;;;4248104;27;20046;-72
2021/07/04 08:42:25;;;;;;;4.85;2.22;;;22.40;99.90;;;;;;4247470;27;20410;-73
2021/07/04 08:44:29;;;;;;;7.85;2.53;;;22.30;99.90;;;;;;4247138;27;20047;-72
2021/07/04 08:46:32;;;;;;;8.13;2.17;;;22.40;99.90;;;;;;4246967;27;20063;-73
2021/07/04 08:48:38;;;;;;;10.27;2.53;;;22.40;99.90;;;;;;4247474;27;20051;-72
2021/07/04 08:50:41;;;;;;;6.03;2.33;;;22.40;99.90;;;;;;4226846;28;20056;-72
2021/07/04 08:52:44;;;;;;;7.22;1.92;;;22.10;99.90;;;;;;4241956;27;20056;-73
2021/07/04 08:54:47;;;;;;;8.35;2.20;;;22.10;99.90;;;;;;4246903;27;20407;-72
2021/07/04 08:56:51;;;;;;;6.88;2.15;;;22.20;99.90;;;;;;4247047;27;20055;-73
2021/07/04 08:58:54;;;;;;;3.60;1.88;;;22.30;99.90;;;;;;4247280;27;20047;-72
2021/07/04 09:01:12;;;;;;;5.93;2.28;;;22.40;99.90;;;;;;4248911;27;20043;-72
2021/07/04 09:03:23;;;;;;;7.20;2.53;;;22.50;99.90;;;;;;4249346;27;20062;-73
2021/07/04 09:05:42;;;;;;;5.32;2.03;;;22.70;99.90;;;;;;4248609;27;20048;-72
2021/07/04 09:07:46;;;;;;;5.10;2.33;;;22.80;99.90;;;;;;4246969;27;20046;-74
2021/07/04 09:09:55;;;;;;;5.38;1.73;;;22.80;99.90;;;;;;4247127;27;20611;-74
2021/07/04 09:12:01;;;;;;;4.05;1.65;;;22.90;99.90;;;;;;4247271;27;20055;-73
2021/07/04 09:14:06;;;;;;;5.72;2.05;;;23.10;99.90;;;;;;4246677;27;20400;-74
2021/07/04 09:16:11;;;;;;;8.07;2.25;;;23.20;99.90;;;;;;4246867;27;20085;-73
2021/07/04 09:18:17;;;;;;;8.25;1.90;;;23.10;99.90;;;;;;4228738;28;20055;-74
2021/07/04 09:20:31;;;;;;;3.33;1.70;;;23.30;99.90;;;;;;4246910;27;20535;-74
2021/07/04 09:22:38;;;;;;;5.07;1.50;;;23.40;99.90;;;;;;4228663;28;20515;-74
2021/07/04 09:24:43;;;;;;;4.30;1.80;;;23.40;99.90;;;;;;4247182;27;20532;-74
2021/07/04 09:26:46;;;;;;;4.03;1.65;;;23.30;99.40;;;;;;4246738;27;20081;-72
2021/07/04 09:28:48;;;;;;;4.35;1.60;;;23.40;99.90;;;;;;4246844;27;20221;-73
2021/07/04 09:30:55;;;;;;;6.45;1.50;;;23.50;98.40;;;;;;4246850;27;20497;-73
2021/07/04 09:32:58;;;;;;;4.53;1.60;;;23.50;98.20;;;;;;4246903;27;20055;-73
2021/07/04 09:35:04;;;;;;;6.90;1.30;;;23.70;98.00;;;;;;4248848;27;20055;-73
2021/07/04 09:37:07;;;;;;;4.40;1.40;;;23.70;98.60;;;;;;4250477;27;20059;-73
2021/07/04 09:39:19;;;;;;;2.28;1.50;;;23.60;98.90;;;;;;4251188;27;20055;-73
2021/07/04 09:41:22;;;;;;;4.80;1.60;;;23.70;99.20;;;;;;4253344;27;20193;-73
2021/07/04 09:43:28;;;;;;;7.00;1.40;;;23.80;98.20;;;;;;4254405;27;20055;-73
2021/07/04 09:45:49;;;;;;;3.33;1.38;;;23.80;97.90;;;;;;4250277;27;20055;-73
2021/07/04 09:47:54;;;;;;;2.53;1.25;;;23.70;97.30;;;;;;4248457;27;20058;-73
2021/07/04 09:50:02;;;;;;;;;;;23.50;96.70;;;;;;4247795;27;20400;-74
2021/07/04 09:52:16;;;;;;;4.95;1.20;;;23.30;96.20;;;;;;4246876;27;20417;-73
2021/07/04 09:54:20;;;;;;;2.20;1.10;;;23.10;95.60;;;;;;4245585;27;20537;-72
2021/07/04 09:56:24;;;;;;;1.80;1.00;;;23.00;96.10;;;;;;4246929;27;20059;-73
2021/07/04 09:58:34;;;;;;;3.90;1.63;;;23.00;94.90;;;;;;4247173;27;20423;-74
2021/07/04 10:00:39;;;;;;;4.50;1.17;;;23.00;96.30;;;;;;4248488;27;20491;-74
2021/07/04 10:02:42;;;;;;;1.33;1.20;;;23.10;96.40;;;;;;4247092;27;20051;-73
2021/07/04 10:04:45;;;;;;;2.88;1.10;;;23.10;96.30;;;;;;4246162;27;20047;-73
2021/07/04 10:06:50;;;;;;;3.95;1.15;;;23.20;96.30;;;;;;4243975;27;20051;-73
2021/07/04 10:08:54;;;;;;;2.33;1.38;;;23.20;96.20;;;;;;4231604;27;20055;-73
2021/07/04 10:11:00;;;;;;;3.53;1.20;;;23.40;96.10;;;;;;4245743;27;20054;-73
2021/07/04 10:13:03;;;;;;;3.67;1.05;;;23.40;96.30;;;;;;4229090;28;20054;-73
2021/07/04 10:15:07;;;;;;;5.50;1.40;;;23.20;95.60;;;;;;4237422;27;20062;-72
2021/07/04 10:17:10;;;;;;;7.75;1.20;;;22.90;96.10;;;;;;4246313;27;20139;-72
2021/07/04 10:19:18;;;;;;;2.80;1.02;;;23.00;96.30;;;;;;4246087;27;20043;-73
2021/07/04 10:21:22;;;;;;;4.07;1.10;;;22.90;96.20;;;;;;4244545;27;20492;-72
2021/07/04 10:23:27;;;;;;;5.15;1.60;;;22.70;96.90;;;;;;4246044;27;20524;-74
2021/07/04 10:25:30;;;;;;;6.32;1.40;;;22.60;97.20;;;;;;4245473;27;20499;-72
2021/07/04 10:27:38;;;;;;;7.78;1.50;;;22.60;98.10;;;;;;4245801;27;20062;-73
2021/07/04 10:29:43;;;;;;;3.33;1.50;;;22.90;98.00;;;;;;4245238;27;20054;-73
2021/07/04 10:31:47;;;;;;;4.40;1.43;;;23.10;97.90;;;;;;4245359;27;20055;-73
2021/07/04 10:34:04;;;;;;;3.42;1.55;;;23.20;98.00;;;;;;4245926;27;20483;-73
2021/07/04 10:36:13;;;;;;;5.95;1.60;;;23.30;98.20;;;;;;4245120;27;20080;-73
2021/07/04 10:38:16;;;;;;;3.30;1.50;;;23.50;98.10;;;;;;4245771;27;20445;-74
2021/07/04 10:40:19;;;;;;;5.40;1.40;;;23.60;97.10;;;;;;4245167;27;20043;-73
2021/07/04 10:42:37;;;;;;;4.20;1.33;;;23.70;96.50;;;;;;4227654;28;20051;-73
2021/07/04 10:44:41;;;;;;;1.40;0.90;;;23.80;96.70;;;;;;4245613;27;20149;-73